Terminal Aerodrome Forecast
Issued by NWS

Home | Current Version | Previous Version | Text Only | Print | Product List | Glossary On
Versions: 1 2 3 4 5 6 7 8 9 10 11 12 13 14 15 16 17 18 19 20 21 22
000
FTUS43 KDLH 210800 AAA
TAFHYR
TAF AMD
KHYR 210801Z 2108/2206 32005KT P6SM -RA OVC006
     FM211200 35007KT P6SM BKN015
     FM211800 36009KT P6SM BKN035
     FM220200 00000KT P6SM SKC=

USA.gov is the U.S. government's official web portal to all federal, state and local government web resources and services.